^^
Station Historical Data
Daily Summary for April 21, 2017 Units:  Both    English   Metric
« Previous Day
Next Day »
Daily Weekly Monthly Yearly Custom
  High: Low: Average:
Temperature: 68.0 °F /  20 °C 51.6 °F /  10.9 °C 58 °F /  14.4 °C
Dew Point: 53.4 °F /  11.9 °C 45.0 °F /  7.2 °C 49.2 °F /  9.6 °C
Humidity: 88% 49% 74%
Wind Speed: 13.0mph /  20.9km/h - 3.8mph /  6.1km/h
Wind Gust: 20.0mph /  32.2km/h - -
Wind- - East
Pressure: 30.07 in /  1018.2 hPa 29.96 in /  1014.4 hPa -
Precipitation: 0.14 in /  3.56 mm    
Historical Graphs
 
 
Tabular Data for April 21, 2017
Time Temperature Dew Point Pressure Wind Wind Speed Wind Gust Humidity Rainfall Rate (Hourly) solar Conditions
00:00 53.1 °F /  11.7 °C 48.9 °F /  9.4 °C 30.01in /  1016.1hPa ESE 4.0mph /  6.4km/h 7.0mph /  11.3km/h 86% 0.00in /  0mm 0.0 W/m2
00:06 53.1 °F /  11.7 °C 48.9 °F /  9.4 °C 30.00in /  1015.8hPa ENE 6.0mph /  9.7km/h 8.0mph /  12.9km/h 86% 0.00in /  0mm 0.0 W/m2
00:12 53.1 °F /  11.7 °C 48.9 °F /  9.4 °C 30.00in /  1015.8hPa ESE 2.9mph /  4.7km/h 8.0mph /  12.9km/h 86% 0.00in /  0mm 0.0 W/m2
00:18 53.1 °F /  11.7 °C 48.9 °F /  9.4 °C 29.99in /  1015.5hPa SE 0.9mph /  1.4km/h 6.0mph /  9.7km/h 86% 0.00in /  0mm 0.0 W/m2
00:25 53.2 °F /  11.8 °C 49.1 °F /  9.5 °C 30.00in /  1015.8hPa ENE 4.0mph /  6.4km/h 5.0mph /  8km/h 86% 0.00in /  0mm 0.0 W/m2
00:31 53.2 °F /  11.8 °C 49.1 °F /  9.5 °C 30.00in /  1015.8hPa Calm   8.0mph /  12.9km/h 86% 0.00in /  0mm 0.0 W/m2
00:37 53.2 °F /  11.8 °C 49.5 °F /  9.7 °C 30.00in /  1015.8hPa ESE 2.9mph /  4.7km/h 9.0mph /  14.5km/h 87% 0.00in /  0mm 0.0 W/m2
00:43 53.2 °F /  11.8 °C 49.5 °F /  9.7 °C 29.99in /  1015.5hPa SE 2.9mph /  4.7km/h 5.0mph /  8km/h 87% 0.00in /  0mm 0.0 W/m2
00:49 53.1 °F /  11.7 °C 49.3 °F /  9.6 °C 29.99in /  1015.5hPa East 2.9mph /  4.7km/h 3.0mph /  4.8km/h 87% 0.00in /  0mm 0.0 W/m2
00:55 53.1 °F /  11.7 °C 49.3 °F /  9.6 °C 29.99in /  1015.5hPa East 0.9mph /  1.4km/h 7.0mph /  11.3km/h 87% 0.00in /  0mm 0.0 W/m2
01:01 53.1 °F /  11.7 °C 49.3 °F /  9.6 °C 29.99in /  1015.5hPa ENE 4.0mph /  6.4km/h 8.0mph /  12.9km/h 87% 0.00in /  0mm 0.0 W/m2
01:07 53.1 °F /  11.7 °C 49.3 °F /  9.6 °C 29.98in /  1015.1hPa ENE 4.0mph /  6.4km/h 6.0mph /  9.7km/h 87% 0.00in /  0mm 0.0 W/m2
01:13 53.1 °F /  11.7 °C 49.3 °F /  9.6 °C 29.98in /  1015.1hPa NNE 2.9mph /  4.7km/h 6.0mph /  9.7km/h 87% 0.00in /  0mm 0.0 W/m2
01:19 53.2 °F /  11.8 °C 49.1 °F /  9.5 °C 29.98in /  1015.1hPa ENE 6.9mph /  11.1km/h 9.0mph /  14.5km/h 86% 0.00in /  0mm 0.0 W/m2
01:26 53.2 °F /  11.8 °C 48.9 °F /  9.4 °C 29.97in /  1014.8hPa ENE 2.9mph /  4.7km/h 12.0mph /  19.3km/h 85% 0.00in /  0mm 0.0 W/m2
01:32 53.4 °F /  11.9 °C 49.1 °F /  9.5 °C 29.98in /  1015.1hPa NNE 0.9mph /  1.4km/h 5.0mph /  8km/h 85% 0.00in /  0mm 0.0 W/m2
01:38 53.4 °F /  11.9 °C 48.7 °F /  9.3 °C 29.98in /  1015.1hPa NE 4.9mph /  7.9km/h 12.0mph /  19.3km/h 84% 0.00in /  0mm 0.0 W/m2
01:44 53.4 °F /  11.9 °C 48.7 °F /  9.3 °C 29.98in /  1015.1hPa ENE 8.1mph /  13km/h 12.0mph /  19.3km/h 84% 0.00in /  0mm 0.0 W/m2
01:50 53.6 °F /  12 °C 48.9 °F /  9.4 °C 29.97in /  1014.8hPa ESE 4.9mph /  7.9km/h 9.0mph /  14.5km/h 84% 0.00in /  0mm 0.0 W/m2
01:56 53.6 °F /  12 °C 48.9 °F /  9.4 °C 29.96in /  1014.4hPa SE 8.1mph /  13km/h 8.1mph /  13km/h 84% 0.00in /  0mm 0.0 W/m2
02:02 53.6 °F /  12 °C 48.9 °F /  9.4 °C 29.97in /  1014.8hPa North 2.9mph /  4.7km/h 10.0mph /  16.1km/h 84% 0.00in /  0mm 0.0 W/m2
02:08 53.6 °F /  12 °C 48.9 °F /  9.4 °C 29.96in /  1014.4hPa ENE 6.9mph /  11.1km/h 8.0mph /  12.9km/h 84% 0.00in /  0mm 0.0 W/m2
02:14 53.4 °F /  11.9 °C 48.7 °F /  9.3 °C 29.96in /  1014.4hPa SE 6.0mph /  9.7km/h 8.0mph /  12.9km/h 84% 0.00in /  0mm 0.0 W/m2
02:20 53.4 °F /  11.9 °C 48.7 °F /  9.3 °C 29.96in /  1014.4hPa North 6.9mph /  11.1km/h 10.0mph /  16.1km/h 84% 0.00in /  0mm 0.0 W/m2
02:26 53.4 °F /  11.9 °C 48.4 °F /  9.1 °C 29.96in /  1014.4hPa SE 2.0mph /  3.2km/h 9.0mph /  14.5km/h 83% 0.00in /  0mm 0.0 W/m2
02:32 53.4 °F /  11.9 °C 48.7 °F /  9.3 °C 29.97in /  1014.8hPa East 2.0mph /  3.2km/h 9.0mph /  14.5km/h 84% 0.00in /  0mm 0.0 W/m2
02:38 53.4 °F /  11.9 °C 48.7 °F /  9.3 °C 29.97in /  1014.8hPa NE 4.0mph /  6.4km/h 8.0mph /  12.9km/h 84% 0.00in /  0mm 0.0 W/m2
02:44 53.2 °F /  11.8 °C 48.6 °F /  9.2 °C 29.97in /  1014.8hPa ENE 2.0mph /  3.2km/h 7.0mph /  11.3km/h 84% 0.00in /  0mm 0.0 W/m2
02:50 53.2 °F /  11.8 °C 48.6 °F /  9.2 °C 29.97in /  1014.8hPa NNE 2.0mph /  3.2km/h 9.0mph /  14.5km/h 84% 0.00in /  0mm 0.0 W/m2
02:56 53.2 °F /  11.8 °C 48.9 °F /  9.4 °C 29.96in /  1014.4hPa ENE 4.9mph /  7.9km/h 8.0mph /  12.9km/h 85% 0.00in /  0mm 0.0 W/m2
03:02 53.1 °F /  11.7 °C 48.7 °F /  9.3 °C 29.97in /  1014.8hPa East 4.0mph /  6.4km/h 9.0mph /  14.5km/h 85% 0.00in /  0mm 0.0 W/m2
03:08 53.1 °F /  11.7 °C 48.7 °F /  9.3 °C 29.97in /  1014.8hPa ENE 8.1mph /  13km/h 9.0mph /  14.5km/h 85% 0.00in /  0mm 0.0 W/m2
03:14 53.1 °F /  11.7 °C 48.9 °F /  9.4 °C 29.97in /  1014.8hPa ENE 8.1mph /  13km/h 11.0mph /  17.7km/h 86% 0.00in /  0mm 0.0 W/m2
03:20 53.1 °F /  11.7 °C 48.9 °F /  9.4 °C 29.97in /  1014.8hPa NE 11.0mph /  17.7km/h 13.0mph /  20.9km/h 86% 0.00in /  0mm 0.0 W/m2
03:26 52.9 °F /  11.6 °C 48.7 °F /  9.3 °C 29.96in /  1014.4hPa ESE 2.9mph /  4.7km/h 9.0mph /  14.5km/h 86% 0.00in /  0mm 0.0 W/m2
03:32 52.9 °F /  11.6 °C 48.7 °F /  9.3 °C 29.97in /  1014.8hPa ENE 4.0mph /  6.4km/h 11.0mph /  17.7km/h 86% 0.00in /  0mm 0.0 W/m2
03:38 52.9 °F /  11.6 °C 49.1 °F /  9.5 °C 29.97in /  1014.8hPa NNE 4.9mph /  7.9km/h 8.0mph /  12.9km/h 87% 0.00in /  0mm 0.0 W/m2
03:44 52.5 °F /  11.4 °C 48.7 °F /  9.3 °C 29.97in /  1014.8hPa ENE 0.9mph /  1.4km/h 11.0mph /  17.7km/h 87% 0.00in /  0mm 0.0 W/m2
03:50 52.5 °F /  11.4 °C 48.7 °F /  9.3 °C 29.97in /  1014.8hPa ENE 2.0mph /  3.2km/h 8.0mph /  12.9km/h 87% 0.00in /  0mm 0.0 W/m2
03:56 52.5 °F /  11.4 °C 48.7 °F /  9.3 °C 29.97in /  1014.8hPa WSW 2.0mph /  3.2km/h 9.0mph /  14.5km/h 87% 0.00in /  0mm 0.0 W/m2
04:02 52.3 °F /  11.3 °C 48.6 °F /  9.2 °C 29.97in /  1014.8hPa NE 0.9mph /  1.4km/h 5.0mph /  8km/h 87% 0.00in /  0mm 0.0 W/m2
04:08 52.3 °F /  11.3 °C 48.6 °F /  9.2 °C 29.97in /  1014.8hPa NE 2.9mph /  4.7km/h 6.0mph /  9.7km/h 87% 0.00in /  0mm 0.0 W/m2
04:14 52.3 °F /  11.3 °C 48.6 °F /  9.2 °C 29.97in /  1014.8hPa SE 2.0mph /  3.2km/h 8.0mph /  12.9km/h 87% 0.00in /  0mm 0.0 W/m2
04:20 52.3 °F /  11.3 °C 48.6 °F /  9.2 °C 29.97in /  1014.8hPa NNE 2.9mph /  4.7km/h 9.0mph /  14.5km/h 87% 0.00in /  0mm 0.0 W/m2
04:26 52.3 °F /  11.3 °C 48.6 °F /  9.2 °C 29.97in /  1014.8hPa East 2.0mph /  3.2km/h 6.0mph /  9.7km/h 87% 0.00in /  0mm 0.0 W/m2
04:32 52.3 °F /  11.3 °C 48.6 °F /  9.2 °C 29.97in /  1014.8hPa NE 2.9mph /  4.7km/h 8.0mph /  12.9km/h 87% 0.00in /  0mm 0.0 W/m2
04:38 52.3 °F /  11.3 °C 48.2 °F /  9 °C 29.97in /  1014.8hPa NNE 2.9mph /  4.7km/h 7.0mph /  11.3km/h 86% 0.00in /  0mm 0.0 W/m2
04:44 52.3 °F /  11.3 °C 48.2 °F /  9 °C 29.97in /  1014.8hPa NE 6.0mph /  9.7km/h 8.0mph /  12.9km/h 86% 0.00in /  0mm 0.0 W/m2
04:50 52.3 °F /  11.3 °C 48.2 °F /  9 °C 29.97in /  1014.8hPa ENE 0.9mph /  1.4km/h 4.0mph /  6.4km/h 86% 0.00in /  0mm 0.0 W/m2
04:56 52.3 °F /  11.3 °C 48.0 °F /  8.9 °C 29.98in /  1015.1hPa NE 2.9mph /  4.7km/h 10.0mph /  16.1km/h 85% 0.00in /  0mm 0.0 W/m2
05:02 52.3 °F /  11.3 °C 48.0 °F /  8.9 °C 29.98in /  1015.1hPa NE 2.0mph /  3.2km/h 8.0mph /  12.9km/h 85% 0.00in /  0mm 0.0 W/m2
05:08 52.3 °F /  11.3 °C 48.2 °F /  9 °C 29.98in /  1015.1hPa East 4.0mph /  6.4km/h 5.0mph /  8km/h 86% 0.00in /  0mm 0.0 W/m2
05:14 52.2 °F /  11.2 °C 48.0 °F /  8.9 °C 29.98in /  1015.1hPa ENE 2.9mph /  4.7km/h 8.0mph /  12.9km/h 86% 0.00in /  0mm 0.0 W/m2
05:20 52.2 °F /  11.2 °C 48.0 °F /  8.9 °C 29.98in /  1015.1hPa NE 4.9mph /  7.9km/h 8.0mph /  12.9km/h 86% 0.00in /  0mm 0.0 W/m2
05:26 52.0 °F /  11.1 °C 47.8 °F /  8.8 °C 29.98in /  1015.1hPa SE 2.0mph /  3.2km/h 8.0mph /  12.9km/h 86% 0.00in /  0mm 0.0 W/m2
05:32 52.0 °F /  11.1 °C 47.8 °F /  8.8 °C 29.98in /  1015.1hPa NE 4.9mph /  7.9km/h 7.0mph /  11.3km/h 86% 0.00in /  0mm 0.0 W/m2
05:38 52.0 °F /  11.1 °C 47.8 °F /  8.8 °C 29.98in /  1015.1hPa ENE 4.0mph /  6.4km/h 8.0mph /  12.9km/h 86% 0.00in /  0mm 0.0 W/m2
05:44 52.0 °F /  11.1 °C 47.8 °F /  8.8 °C 29.98in /  1015.1hPa ENE 4.0mph /  6.4km/h 5.0mph /  8km/h 86% 0.00in /  0mm 0.0 W/m2
05:50 52.0 °F /  11.1 °C 47.8 °F /  8.8 °C 29.98in /  1015.1hPa SE 4.0mph /  6.4km/h 7.0mph /  11.3km/h 86% 0.00in /  0mm 0.0 W/m2
05:56 52.0 °F /  11.1 °C 47.8 °F /  8.8 °C 29.99in /  1015.5hPa NNE 2.0mph /  3.2km/h 11.0mph /  17.7km/h 86% 0.00in /  0mm 0.0 W/m2
06:02 51.8 °F /  11 °C 47.7 °F /  8.7 °C 29.99in /  1015.5hPa NE 4.0mph /  6.4km/h 5.0mph /  8km/h 86% 0.00in /  0mm 0.0 W/m2
06:08 51.8 °F /  11 °C 47.7 °F /  8.7 °C 29.99in /  1015.5hPa ENE 4.9mph /  7.9km/h 5.0mph /  8km/h 86% 0.00in /  0mm 0.0 W/m2
06:14 52.0 °F /  11.1 °C 47.8 °F /  8.8 °C 30.00in /  1015.8hPa NE 2.9mph /  4.7km/h 5.0mph /  8km/h 86% 0.00in /  0mm 0.0 W/m2
06:20 52.0 °F /  11.1 °C 47.8 °F /  8.8 °C 30.01in /  1016.1hPa NNW 2.9mph /  4.7km/h 3.0mph /  4.8km/h 86% 0.00in /  0mm 7.0 W/m2
06:26 51.8 °F /  11 °C 47.7 °F /  8.7 °C 30.01in /  1016.1hPa ENE 4.9mph /  7.9km/h 5.0mph /  8km/h 86% 0.00in /  0mm 14.0 W/m2
06:32 51.8 °F /  11 °C 48.0 °F /  8.9 °C 30.01in /  1016.1hPa ESE 2.0mph /  3.2km/h 3.0mph /  4.8km/h 87% 0.00in /  0mm 16.0 W/m2
06:38 51.8 °F /  11 °C 48.0 °F /  8.9 °C 30.01in /  1016.1hPa NNW 0.9mph /  1.4km/h 2.0mph /  3.2km/h 87% 0.00in /  0mm 12.0 W/m2
06:44 51.6 °F /  10.9 °C 47.8 °F /  8.8 °C 30.01in /  1016.1hPa East 2.9mph /  4.7km/h 7.0mph /  11.3km/h 87% 0.00in /  0mm 12.0 W/m2
06:50 51.6 °F /  10.9 °C 47.8 °F /  8.8 °C 30.02in /  1016.5hPa Calm   3.0mph /  4.8km/h 87% 0.00in /  0mm 12.0 W/m2
06:56 51.6 °F /  10.9 °C 47.8 °F /  8.8 °C 30.02in /  1016.5hPa Calm   3.0mph /  4.8km/h 87% 0.00in /  0mm 16.0 W/m2
07:02 51.6 °F /  10.9 °C 47.8 °F /  8.8 °C 30.03in /  1016.8hPa Calm   4.0mph /  6.4km/h 87% 0.00in /  0mm 14.0 W/m2
07:08 51.6 °F /  10.9 °C 47.8 °F /  8.8 °C 30.03in /  1016.8hPa Calm     87% 0.00in /  0mm 18.0 W/m2
07:14 51.8 °F /  11 °C 48.0 °F /  8.9 °C 30.03in /  1016.8hPa Calm   4.0mph /  6.4km/h 87% 0.00in /  0mm 28.0 W/m2
07:20 52.0 °F /  11.1 °C 48.6 °F /  9.2 °C 30.03in /  1016.8hPa ESE 0.9mph /  1.4km/h 3.0mph /  4.8km/h 88% 0.00in /  0mm 62.0 W/m2
07:26 52.3 °F /  11.3 °C 48.9 °F /  9.4 °C 30.03in /  1016.8hPa ENE 6.9mph /  11.1km/h 8.0mph /  12.9km/h 88% 0.00in /  0mm 74.0 W/m2
07:32 52.9 °F /  11.6 °C 48.7 °F /  9.3 °C 30.03in /  1016.8hPa NE 0.9mph /  1.4km/h 7.0mph /  11.3km/h 86% 0.00in /  0mm 93.0 W/m2
07:38 53.2 °F /  11.8 °C 49.1 °F /  9.5 °C 30.03in /  1016.8hPa Calm   6.0mph /  9.7km/h 86% 0.00in /  0mm 95.0 W/m2
07:44 53.8 °F /  12.1 °C 49.5 °F /  9.7 °C 30.04in /  1017.2hPa Calm   7.0mph /  11.3km/h 85% 0.00in /  0mm 105.0 W/m2
07:50 54.1 °F /  12.3 °C 49.8 °F /  9.9 °C 30.04in /  1017.2hPa NE 4.9mph /  7.9km/h 5.0mph /  8km/h 85% 0.00in /  0mm 128.0 W/m2
07:56 54.7 °F /  12.6 °C 50.0 °F /  10 °C 30.04in /  1017.2hPa ENE 4.0mph /  6.4km/h 7.0mph /  11.3km/h 84% 0.00in /  0mm 149.0 W/m2
08:02 55.2 °F /  12.9 °C 49.8 °F /  9.9 °C 30.04in /  1017.2hPa ENE 0.9mph /  1.4km/h 7.0mph /  11.3km/h 82% 0.00in /  0mm 151.0 W/m2
08:08 55.8 °F /  13.2 °C 50.0 °F /  10 °C 30.04in /  1017.2hPa NE 4.0mph /  6.4km/h 8.0mph /  12.9km/h 81% 0.00in /  0mm 209.0 W/m2
08:14 56.3 °F /  13.5 °C 50.5 °F /  10.3 °C 30.04in /  1017.2hPa ENE 0.9mph /  1.4km/h 4.0mph /  6.4km/h 81% 0.00in /  0mm 225.0 W/m2
08:22 57.2 °F /  14 °C 50.7 °F /  10.4 °C 30.04in /  1017.2hPa ENE 4.0mph /  6.4km/h 4.0mph /  6.4km/h 79% 0.00in /  0mm 202.0 W/m2
08:28 57.6 °F /  14.2 °C 50.7 °F /  10.4 °C 30.05in /  1017.5hPa NE 0.9mph /  1.4km/h 9.0mph /  14.5km/h 78% 0.00in /  0mm 229.0 W/m2
08:34 57.9 °F /  14.4 °C 50.7 °F /  10.4 °C 30.05in /  1017.5hPa Calm   5.0mph /  8km/h 77% 0.00in /  0mm 239.0 W/m2
08:40 58.3 °F /  14.6 °C 50.7 °F /  10.4 °C 30.05in /  1017.5hPa ENE 2.0mph /  3.2km/h 5.0mph /  8km/h 76% 0.00in /  0mm 156.0 W/m2
08:46 58.5 °F /  14.7 °C 50.9 °F /  10.5 °C 30.05in /  1017.5hPa East 0.9mph /  1.4km/h 4.0mph /  6.4km/h 76% 0.00in /  0mm 104.0 W/m2
08:52 58.6 °F /  14.8 °C 51.1 °F /  10.6 °C 30.05in /  1017.5hPa Calm   4.0mph /  6.4km/h 76% 0.00in /  0mm 137.0 W/m2
08:58 58.6 °F /  14.8 °C 51.1 °F /  10.6 °C 30.05in /  1017.5hPa ENE 0.9mph /  1.4km/h 4.0mph /  6.4km/h 76% 0.00in /  0mm 190.0 W/m2
09:04 58.8 °F /  14.9 °C 51.3 °F /  10.7 °C 30.06in /  1017.8hPa SE 2.9mph /  4.7km/h 6.0mph /  9.7km/h 76% 0.00in /  0mm 281.0 W/m2
09:10 59.4 °F /  15.2 °C 51.4 °F /  10.8 °C 30.05in /  1017.5hPa ESE 2.0mph /  3.2km/h 4.0mph /  6.4km/h 75% 0.00in /  0mm 260.0 W/m2
09:16 59.9 °F /  15.5 °C 52.0 °F /  11.1 °C 30.05in /  1017.5hPa NE 4.0mph /  6.4km/h 9.0mph /  14.5km/h 75% 0.00in /  0mm 717.0 W/m2
09:22 61.2 °F /  16.2 °C 52.0 °F /  11.1 °C 30.05in /  1017.5hPa SE 4.9mph /  7.9km/h 11.0mph /  17.7km/h 72% 0.00in /  0mm 673.0 W/m2
09:28 62.1 °F /  16.7 °C 52.2 °F /  11.2 °C 30.05in /  1017.5hPa ESE 0.9mph /  1.4km/h 11.0mph /  17.7km/h 70% 0.00in /  0mm 737.0 W/m2
09:34 63.0 °F /  17.2 °C 52.7 °F /  11.5 °C 30.05in /  1017.5hPa East 2.9mph /  4.7km/h 7.0mph /  11.3km/h 69% 0.00in /  0mm 738.0 W/m2
09:40 63.3 °F /  17.4 °C 52.5 °F /  11.4 °C 30.05in /  1017.5hPa North 4.9mph /  7.9km/h 11.0mph /  17.7km/h 68% 0.00in /  0mm 758.0 W/m2
09:47 63.7 °F /  17.6 °C 52.5 °F /  11.4 °C 30.05in /  1017.5hPa East 4.0mph /  6.4km/h 10.0mph /  16.1km/h 67% 0.00in /  0mm 735.0 W/m2
09:53 63.9 °F /  17.7 °C 52.3 °F /  11.3 °C 30.05in /  1017.5hPa NNE 8.1mph /  13km/h 12.0mph /  19.3km/h 66% 0.00in /  0mm 814.0 W/m2
09:58 64.0 °F /  17.8 °C 52.9 °F /  11.6 °C 30.05in /  1017.5hPa ENE 4.0mph /  6.4km/h 8.0mph /  12.9km/h 67% 0.00in /  0mm 777.0 W/m2
10:05 64.6 °F /  18.1 °C 53.4 °F /  11.9 °C 30.04in /  1017.2hPa NE 2.9mph /  4.7km/h 6.0mph /  9.7km/h 67% 0.00in /  0mm 369.0 W/m2
10:11 64.9 °F /  18.3 °C 52.0 °F /  11.1 °C 30.05in /  1017.5hPa ENE 6.9mph /  11.1km/h 12.0mph /  19.3km/h 63% 0.00in /  0mm 369.0 W/m2
10:17 64.6 °F /  18.1 °C 51.6 °F /  10.9 °C 30.05in /  1017.5hPa East 6.9mph /  11.1km/h 10.0mph /  16.1km/h 63% 0.00in /  0mm 271.0 W/m2
10:23 64.0 °F /  17.8 °C 52.0 °F /  11.1 °C 30.05in /  1017.5hPa North 0.9mph /  1.4km/h 9.0mph /  14.5km/h 65% 0.00in /  0mm 248.0 W/m2
10:29 63.7 °F /  17.6 °C 51.3 °F /  10.7 °C 30.05in /  1017.5hPa NE 8.1mph /  13km/h 11.0mph /  17.7km/h 64% 0.00in /  0mm 236.0 W/m2
10:35 63.3 °F /  17.4 °C 51.4 °F /  10.8 °C 30.05in /  1017.5hPa ENE 10.1mph /  16.3km/h 13.0mph /  20.9km/h 65% 0.00in /  0mm 162.0 W/m2
10:41 62.8 °F /  17.1 °C 49.6 °F /  9.8 °C 30.05in /  1017.5hPa North 8.9mph /  14.3km/h 16.0mph /  25.7km/h 62% 0.00in /  0mm 213.0 W/m2
10:47 62.4 °F /  16.9 °C 49.3 °F /  9.6 °C 30.05in /  1017.5hPa SSE 4.0mph /  6.4km/h 12.0mph /  19.3km/h 62% 0.00in /  0mm 244.0 W/m2
10:53 62.1 °F /  16.7 °C 49.3 °F /  9.6 °C 30.05in /  1017.5hPa North 13.0mph /  20.9km/h 15.0mph /  24.1km/h 63% 0.00in /  0mm 276.0 W/m2
10:59 61.9 °F /  16.6 °C 50.4 °F /  10.2 °C 30.04in /  1017.2hPa East 2.0mph /  3.2km/h 5.0mph /  8km/h 66% 0.00in /  0mm 192.0 W/m2
11:05 61.7 °F /  16.5 °C 50.7 °F /  10.4 °C 30.04in /  1017.2hPa North 2.0mph /  3.2km/h 10.0mph /  16.1km/h 67% 0.00in /  0mm 174.0 W/m2
11:11 61.3 °F /  16.3 °C 51.1 °F /  10.6 °C 30.03in /  1016.8hPa South 2.0mph /  3.2km/h 11.0mph /  17.7km/h 69% 0.00in /  0mm 285.0 W/m2
11:17 61.9 °F /  16.6 °C 51.3 °F /  10.7 °C 30.04in /  1017.2hPa East 8.1mph /  13km/h 11.0mph /  17.7km/h 68% 0.00in /  0mm 436.0 W/m2
11:23 62.6 °F /  17 °C 52.0 °F /  11.1 °C 30.03in /  1016.8hPa SE 2.9mph /  4.7km/h 9.0mph /  14.5km/h 68% 0.00in /  0mm 860.0 W/m2
11:29 63.1 °F /  17.3 °C 52.0 °F /  11.1 °C 30.03in /  1016.8hPa ENE 6.9mph /  11.1km/h 13.0mph /  20.9km/h 67% 0.00in /  0mm 353.0 W/m2
11:35 63.0 °F /  17.2 °C 51.4 °F /  10.8 °C 30.02in /  1016.5hPa NW 4.0mph /  6.4km/h 18.0mph /  29km/h 66% 0.00in /  0mm 316.0 W/m2
11:41 63.1 °F /  17.3 °C 51.6 °F /  10.9 °C 30.02in /  1016.5hPa ESE 11.0mph /  17.7km/h 17.0mph /  27.4km/h 66% 0.00in /  0mm 318.0 W/m2
11:47 63.0 °F /  17.2 °C 51.4 °F /  10.8 °C 30.02in /  1016.5hPa ENE 8.1mph /  13km/h 11.0mph /  17.7km/h 66% 0.00in /  0mm 714.0 W/m2
11:53 63.7 °F /  17.6 °C 51.6 °F /  10.9 °C 30.01in /  1016.1hPa NE 4.9mph /  7.9km/h 12.0mph /  19.3km/h 65% 0.00in /  0mm 912.0 W/m2
11:59 64.2 °F /  17.9 °C 50.9 °F /  10.5 °C 30.01in /  1016.1hPa NNE 6.9mph /  11.1km/h 12.0mph /  19.3km/h 62% 0.00in /  0mm 844.0 W/m2
12:05 64.6 °F /  18.1 °C 51.3 °F /  10.7 °C 30.02in /  1016.5hPa SE 8.9mph /  14.3km/h 14.0mph /  22.5km/h 62% 0.00in /  0mm 838.0 W/m2
12:11 64.8 °F /  18.2 °C 51.8 °F /  11 °C 30.01in /  1016.1hPa ESE 10.1mph /  16.3km/h 12.0mph /  19.3km/h 63% 0.00in /  0mm 833.0 W/m2
12:17 64.8 °F /  18.2 °C 51.4 °F /  10.8 °C 30.01in /  1016.1hPa ENE 6.0mph /  9.7km/h 18.0mph /  29km/h 62% 0.00in /  0mm 851.0 W/m2
12:23 65.3 °F /  18.5 °C 52.3 °F /  11.3 °C 30.01in /  1016.1hPa ENE 4.0mph /  6.4km/h 15.0mph /  24.1km/h 63% 0.00in /  0mm 840.0 W/m2
12:29 65.5 °F /  18.6 °C 51.6 °F /  10.9 °C 30.01in /  1016.1hPa NE 10.1mph /  16.3km/h 15.0mph /  24.1km/h 61% 0.00in /  0mm 854.0 W/m2
12:35 65.3 °F /  18.5 °C 52.0 °F /  11.1 °C 30.01in /  1016.1hPa ENE 12.1mph /  19.5km/h 16.0mph /  25.7km/h 62% 0.00in /  0mm 824.0 W/m2
12:42 65.3 °F /  18.5 °C 51.4 °F /  10.8 °C 30.01in /  1016.1hPa ENE 8.1mph /  13km/h 12.0mph /  19.3km/h 61% 0.00in /  0mm 814.0 W/m2
12:47 65.5 °F /  18.6 °C 51.3 °F /  10.7 °C 30.01in /  1016.1hPa East 2.9mph /  4.7km/h 14.0mph /  22.5km/h 60% 0.00in /  0mm 803.0 W/m2
12:54 65.5 °F /  18.6 °C 51.6 °F /  10.9 °C 30.01in /  1016.1hPa NE 12.1mph /  19.5km/h 14.0mph /  22.5km/h 61% 0.00in /  0mm 798.0 W/m2
13:00 65.1 °F /  18.4 °C 51.3 °F /  10.7 °C 30.01in /  1016.1hPa ENE 2.9mph /  4.7km/h 11.0mph /  17.7km/h 61% 0.00in /  0mm 788.0 W/m2
13:06 65.5 °F /  18.6 °C 51.6 °F /  10.9 °C 30.00in /  1015.8hPa East 12.1mph /  19.5km/h 13.0mph /  20.9km/h 61% 0.00in /  0mm 780.0 W/m2
13:12 65.5 °F /  18.6 °C 51.6 °F /  10.9 °C 30.00in /  1015.8hPa SE 2.9mph /  4.7km/h 10.0mph /  16.1km/h 61% 0.00in /  0mm 768.0 W/m2
13:18 65.7 °F /  18.7 °C 51.4 °F /  10.8 °C 30.00in /  1015.8hPa ENE 8.1mph /  13km/h 14.0mph /  22.5km/h 60% 0.00in /  0mm 761.0 W/m2
13:23 65.5 °F /  18.6 °C 50.7 °F /  10.4 °C 29.99in /  1015.5hPa NE 8.9mph /  14.3km/h 13.0mph /  20.9km/h 59% 0.00in /  0mm 756.0 W/m2
13:30 66.0 °F /  18.9 °C 51.8 °F /  11 °C 29.99in /  1015.5hPa NE 6.0mph /  9.7km/h 17.0mph /  27.4km/h 60% 0.00in /  0mm 754.0 W/m2
13:38 66.6 °F /  19.2 °C 50.9 °F /  10.5 °C 29.98in /  1015.1hPa East 8.9mph /  14.3km/h 13.0mph /  20.9km/h 57% 0.00in /  0mm 722.0 W/m2
13:44 66.6 °F /  19.2 °C 49.8 °F /  9.9 °C 29.98in /  1015.1hPa NNE 6.0mph /  9.7km/h 13.0mph /  20.9km/h 55% 0.00in /  0mm 710.0 W/m2
13:52 66.7 °F /  19.3 °C 50.0 °F /  10 °C 29.98in /  1015.1hPa SSE 6.9mph /  11.1km/h 14.0mph /  22.5km/h 55% 0.00in /  0mm 696.0 W/m2
14:00 66.9 °F /  19.4 °C 48.7 °F /  9.3 °C 29.98in /  1015.1hPa NE 8.1mph /  13km/h 18.0mph /  29km/h 52% 0.00in /  0mm 740.0 W/m2
14:08 67.5 °F /  19.7 °C 49.3 °F /  9.6 °C 29.98in /  1015.1hPa North 4.0mph /  6.4km/h 12.0mph /  19.3km/h 52% 0.00in /  0mm 682.0 W/m2
14:14 67.5 °F /  19.7 °C 49.8 °F /  9.9 °C 29.98in /  1015.1hPa NNE 6.9mph /  11.1km/h 12.0mph /  19.3km/h 53% 0.00in /  0mm 722.0 W/m2
14:20 67.6 °F /  19.8 °C 49.8 °F /  9.9 °C 29.98in /  1015.1hPa ENE 4.9mph /  7.9km/h 10.0mph /  16.1km/h 53% 0.00in /  0mm 642.0 W/m2
14:26 67.6 °F /  19.8 °C 48.9 °F /  9.4 °C 29.98in /  1015.1hPa ENE 6.9mph /  11.1km/h 9.0mph /  14.5km/h 51% 0.00in /  0mm 636.0 W/m2
14:32 67.8 °F /  19.9 °C 48.6 °F /  9.2 °C 29.98in /  1015.1hPa NE 4.9mph /  7.9km/h 15.0mph /  24.1km/h 50% 0.00in /  0mm 684.0 W/m2
14:38 67.6 °F /  19.8 °C 48.4 °F /  9.1 °C 29.98in /  1015.1hPa NE 4.9mph /  7.9km/h 10.0mph /  16.1km/h 50% 0.00in /  0mm 770.0 W/m2
14:45 67.5 °F /  19.7 °C 48.2 °F /  9 °C 29.98in /  1015.1hPa North 4.9mph /  7.9km/h 8.0mph /  12.9km/h 50% 0.00in /  0mm 352.0 W/m2
14:51 67.1 °F /  19.5 °C 47.3 °F /  8.5 °C 29.98in /  1015.1hPa NNE 0.9mph /  1.4km/h 7.0mph /  11.3km/h 49% 0.00in /  0mm 475.0 W/m2
14:57 67.3 °F /  19.6 °C 49.6 °F /  9.8 °C 29.97in /  1014.8hPa East 0.9mph /  1.4km/h 9.0mph /  14.5km/h 53% 0.00in /  0mm 408.0 W/m2
15:03 68.0 °F /  20 °C 49.3 °F /  9.6 °C 29.97in /  1014.8hPa North 11.0mph /  17.7km/h 13.0mph /  20.9km/h 51% 0.00in /  0mm 585.0 W/m2
15:09 67.5 °F /  19.7 °C 49.3 °F /  9.6 °C 29.97in /  1014.8hPa NE 6.9mph /  11.1km/h 10.0mph /  16.1km/h 52% 0.00in /  0mm 141.0 W/m2
15:15 66.7 °F /  19.3 °C 49.1 °F /  9.5 °C 29.98in /  1015.1hPa ENE 2.9mph /  4.7km/h 7.0mph /  11.3km/h 53% 0.00in /  0mm 144.0 W/m2
15:23 65.8 °F /  18.8 °C 48.7 °F /  9.3 °C 29.98in /  1015.1hPa ENE 0.9mph /  1.4km/h 8.0mph /  12.9km/h 54% 0.00in /  0mm 121.0 W/m2
15:29 65.5 °F /  18.6 °C 48.9 °F /  9.4 °C 29.98in /  1015.1hPa NNE 4.0mph /  6.4km/h 9.0mph /  14.5km/h 55% 0.00in /  0mm 118.0 W/m2
15:39 64.8 °F /  18.2 °C 48.2 °F /  9 °C 29.97in /  1014.8hPa North 8.9mph /  14.3km/h 16.0mph /  25.7km/h 55% 0.00in /  0mm 118.0 W/m2
15:45 64.4 °F /  18 °C 47.8 °F /  8.8 °C 29.98in /  1015.1hPa NNE 6.9mph /  11.1km/h 11.0mph /  17.7km/h 55% 0.00in /  0mm 105.0 W/m2
15:55 63.9 °F /  17.7 °C 47.8 °F /  8.8 °C 29.98in /  1015.1hPa NNW 6.9mph /  11.1km/h 10.0mph /  16.1km/h 56% 0.00in /  0mm 113.0 W/m2
16:01 63.9 °F /  17.7 °C 49.3 °F /  9.6 °C 29.99in /  1015.5hPa ENE 6.0mph /  9.7km/h 10.0mph /  16.1km/h 59% 0.00in /  0mm 130.0 W/m2
16:13 63.7 °F /  17.6 °C 48.6 °F /  9.2 °C 29.99in /  1015.5hPa NE 4.0mph /  6.4km/h 9.0mph /  14.5km/h 58% 0.00in /  0mm 56.0 W/m2
16:19 63.3 °F /  17.4 °C 48.7 °F /  9.3 °C 29.99in /  1015.5hPa North 2.9mph /  4.7km/h 8.0mph /  12.9km/h 59% 0.00in /  0mm 39.0 W/m2
16:28 63.0 °F /  17.2 °C 48.9 °F /  9.4 °C 29.99in /  1015.5hPa NNW 4.9mph /  7.9km/h 6.0mph /  9.7km/h 60% 0.00in /  0mm 30.0 W/m2
16:38 62.8 °F /  17.1 °C 48.7 °F /  9.3 °C 29.99in /  1015.5hPa North 2.0mph /  3.2km/h 6.0mph /  9.7km/h 60% 0.00in /  0mm 23.0 W/m2
16:44 62.6 °F /  17 °C 48.9 °F /  9.4 °C 29.99in /  1015.5hPa Calm   2.0mph /  3.2km/h 61% 0.00in /  0mm 19.0 W/m2
16:50 62.4 °F /  16.9 °C 49.3 °F /  9.6 °C 29.99in /  1015.5hPa Calm   2.0mph /  3.2km/h 62% 0.00in /  0mm 18.0 W/m2
16:56 62.2 °F /  16.8 °C 48.6 °F /  9.2 °C 29.99in /  1015.5hPa NNE 4.0mph /  6.4km/h 5.0mph /  8km/h 61% 0.00in /  0mm 12.0 W/m2
17:02 62.1 °F /  16.7 °C 48.9 °F /  9.4 °C 29.99in /  1015.5hPa Calm   1.0mph /  1.6km/h 62% 0.00in /  0mm 11.0 W/m2
17:08 62.1 °F /  16.7 °C 48.4 °F /  9.1 °C 29.98in /  1015.1hPa NNE 2.9mph /  4.7km/h 6.0mph /  9.7km/h 61% 0.00in /  0mm 9.0 W/m2
17:14 61.9 °F /  16.6 °C 48.7 °F /  9.3 °C 29.98in /  1015.1hPa North 0.9mph /  1.4km/h 5.0mph /  8km/h 62% 0.00in /  0mm 7.0 W/m2
17:20 61.9 °F /  16.6 °C 48.7 °F /  9.3 °C 29.98in /  1015.1hPa NNE 2.0mph /  3.2km/h 6.0mph /  9.7km/h 62% 0.00in /  0mm 0.0 W/m2
17:26 61.5 °F /  16.4 °C 48.7 °F /  9.3 °C 29.99in /  1015.5hPa Calm   3.0mph /  4.8km/h 63% 0.00in /  0mm 0.0 W/m2
17:33 61.5 °F /  16.4 °C 48.7 °F /  9.3 °C 29.99in /  1015.5hPa North 0.9mph /  1.4km/h 3.0mph /  4.8km/h 63% 0.00in /  0mm 0.0 W/m2
17:38 61.3 °F /  16.3 °C 49.1 °F /  9.5 °C 29.99in /  1015.5hPa NNE 2.9mph /  4.7km/h 3.0mph /  4.8km/h 64% 0.00in /  0mm 0.0 W/m2
17:44 61.3 °F /  16.3 °C 49.1 °F /  9.5 °C 29.98in /  1015.1hPa NNE 2.9mph /  4.7km/h 5.0mph /  8km/h 64% 0.00in /  0mm 0.0 W/m2
17:50 61.2 °F /  16.2 °C 48.4 °F /  9.1 °C 29.99in /  1015.5hPa North 0.9mph /  1.4km/h 4.0mph /  6.4km/h 63% 0.00in /  0mm 0.0 W/m2
17:56 61.2 °F /  16.2 °C 48.9 °F /  9.4 °C 29.98in /  1015.1hPa NNE 4.0mph /  6.4km/h 5.0mph /  8km/h 64% 0.00in /  0mm 0.0 W/m2
18:02 61.2 °F /  16.2 °C 48.9 °F /  9.4 °C 29.98in /  1015.1hPa Calm   4.0mph /  6.4km/h 64% 0.00in /  0mm 0.0 W/m2
18:09 61.0 °F /  16.1 °C 49.1 °F /  9.5 °C 29.98in /  1015.1hPa Calm   4.0mph /  6.4km/h 65% 0.00in /  0mm 0.0 W/m2
18:15 60.8 °F /  16 °C 49.5 °F /  9.7 °C 29.98in /  1015.1hPa NNW 2.0mph /  3.2km/h 7.0mph /  11.3km/h 66% 0.00in /  0mm 0.0 W/m2
18:21 60.6 °F /  15.9 °C 49.6 °F /  9.8 °C 29.98in /  1015.1hPa NE 6.0mph /  9.7km/h 6.0mph /  9.7km/h 67% 0.00in /  0mm 0.0 W/m2
18:27 60.4 °F /  15.8 °C 49.8 °F /  9.9 °C 29.98in /  1015.1hPa Calm   8.0mph /  12.9km/h 68% 0.00in /  0mm 0.0 W/m2
18:33 60.3 °F /  15.7 °C 50.0 °F /  10 °C 29.98in /  1015.1hPa ESE 0.9mph /  1.4km/h 8.0mph /  12.9km/h 69% 0.00in /  0mm 0.0 W/m2
18:39 60.1 °F /  15.6 °C 49.8 °F /  9.9 °C 29.98in /  1015.1hPa NE 4.9mph /  7.9km/h 8.0mph /  12.9km/h 69% 0.00in /  0mm 0.0 W/m2
18:45 59.7 °F /  15.4 °C 49.5 °F /  9.7 °C 29.99in /  1015.5hPa SE 2.9mph /  4.7km/h 11.0mph /  17.7km/h 69% 0.00in /  0mm 0.0 W/m2
18:51 59.7 °F /  15.4 °C 50.0 °F /  10 °C 30.00in /  1015.8hPa Calm   9.0mph /  14.5km/h 70% 0.00in /  0mm 0.0 W/m2
18:58 59.7 °F /  15.4 °C 50.0 °F /  10 °C 30.00in /  1015.8hPa NE 2.9mph /  4.7km/h 5.0mph /  8km/h 70% 0.00in /  0mm 0.0 W/m2
19:04 59.5 °F /  15.3 °C 49.8 °F /  9.9 °C 30.00in /  1015.8hPa NE 0.9mph /  1.4km/h 4.0mph /  6.4km/h 70% 0.00in /  0mm 0.0 W/m2
19:10 59.5 °F /  15.3 °C 50.2 °F /  10.1 °C 29.99in /  1015.5hPa ESE 4.0mph /  6.4km/h 5.0mph /  8km/h 71% 0.00in /  0mm 0.0 W/m2
19:16 59.4 °F /  15.2 °C 50.0 °F /  10 °C 29.99in /  1015.5hPa Calm   3.0mph /  4.8km/h 71% 0.00in /  0mm 0.0 W/m2
19:22 59.4 °F /  15.2 °C 50.0 °F /  10 °C 30.01in /  1016.1hPa NW 0.9mph /  1.4km/h 2.0mph /  3.2km/h 71% 0.00in /  0mm 0.0 W/m2
19:28 59.2 °F /  15.1 °C 49.8 °F /  9.9 °C 30.01in /  1016.1hPa NE 4.0mph /  6.4km/h 4.0mph /  6.4km/h 71% 0.00in /  0mm 0.0 W/m2
19:34 59.2 °F /  15.1 °C 49.5 °F /  9.7 °C 30.01in /  1016.1hPa ENE 2.0mph /  3.2km/h 5.0mph /  8km/h 70% 0.00in /  0mm 0.0 W/m2
19:41 59.2 °F /  15.1 °C 49.5 °F /  9.7 °C 30.01in /  1016.1hPa NE 2.0mph /  3.2km/h 3.0mph /  4.8km/h 70% 0.00in /  0mm 0.0 W/m2
19:47 59.2 °F /  15.1 °C 49.8 °F /  9.9 °C 30.01in /  1016.1hPa ENE 2.0mph /  3.2km/h 4.0mph /  6.4km/h 71% 0.00in /  0mm 0.0 W/m2
19:53 59.2 °F /  15.1 °C 49.8 °F /  9.9 °C 30.01in /  1016.1hPa ENE 0.9mph /  1.4km/h 3.0mph /  4.8km/h 71% 0.00in /  0mm 0.0 W/m2
19:59 58.8 °F /  14.9 °C 48.7 °F /  9.3 °C 30.01in /  1016.1hPa NE 4.0mph /  6.4km/h 7.0mph /  11.3km/h 69% 0.00in /  0mm 0.0 W/m2
20:05 59.0 °F /  15 °C 48.4 °F /  9.1 °C 30.01in /  1016.1hPa ENE 2.0mph /  3.2km/h 10.0mph /  16.1km/h 68% 0.00in /  0mm 0.0 W/m2
20:11 59.2 °F /  15.1 °C 47.5 °F /  8.6 °C 30.00in /  1015.8hPa ENE 4.0mph /  6.4km/h 6.0mph /  9.7km/h 65% 0.00in /  0mm 0.0 W/m2
20:17 59.2 °F /  15.1 °C 46.2 °F /  7.9 °C 30.01in /  1016.1hPa Calm   13.0mph /  20.9km/h 62% 0.00in /  0mm 0.0 W/m2
20:23 59.4 °F /  15.2 °C 45.9 °F /  7.7 °C 30.03in /  1016.8hPa NNE 2.9mph /  4.7km/h 6.0mph /  9.7km/h 61% 0.00in /  0mm 0.0 W/m2
20:29 59.4 °F /  15.2 °C 45.9 °F /  7.7 °C 30.03in /  1016.8hPa NNW 2.9mph /  4.7km/h 5.0mph /  8km/h 61% 0.00in /  0mm 0.0 W/m2
20:35 59.4 °F /  15.2 °C 45.0 °F /  7.2 °C 30.04in /  1017.2hPa NNE 2.0mph /  3.2km/h 6.0mph /  9.7km/h 59% 0.00in /  0mm 0.0 W/m2
20:41 59.7 °F /  15.4 °C 45.0 °F /  7.2 °C 30.04in /  1017.2hPa North 2.0mph /  3.2km/h 8.0mph /  12.9km/h 58% 0.00in /  0mm 0.0 W/m2
20:47 59.7 °F /  15.4 °C 46.2 °F /  7.9 °C 30.05in /  1017.5hPa ENE 6.0mph /  9.7km/h 10.0mph /  16.1km/h 61% 0.00in /  0mm 0.0 W/m2
20:53 59.4 °F /  15.2 °C 47.7 °F /  8.7 °C 30.06in /  1017.8hPa East 0.9mph /  1.4km/h 5.0mph /  8km/h 65% 0.00in /  0mm 0.0 W/m2
20:59 58.3 °F /  14.6 °C 48.6 °F /  9.2 °C 30.06in /  1017.8hPa Calm   5.0mph /  8km/h 70% 0.00in /  0mm 0.0 W/m2
21:06 57.6 °F /  14.2 °C 49.3 °F /  9.6 °C 30.06in /  1017.8hPa ESE 4.0mph /  6.4km/h 5.0mph /  8km/h 74% 0.01in /  0.25mm 0.0 W/m2
21:12 56.5 °F /  13.6 °C 49.3 °F /  9.6 °C 30.06in /  1017.8hPa Calm   4.0mph /  6.4km/h 77% 0.02in /  0.51mm 0.0 W/m2
21:17 55.6 °F /  13.1 °C 49.8 °F /  9.9 °C 30.07in /  1018.2hPa ESE 2.9mph /  4.7km/h 3.0mph /  4.8km/h 81% 0.03in /  0.76mm 0.0 W/m2
21:24 54.9 °F /  12.7 °C 49.8 °F /  9.9 °C 30.07in /  1018.2hPa East 4.0mph /  6.4km/h 5.0mph /  8km/h 83% 0.05in /  1.27mm 0.0 W/m2
21:30 54.3 °F /  12.4 °C 49.8 °F /  9.9 °C 30.06in /  1017.8hPa ENE 6.0mph /  9.7km/h 6.0mph /  9.7km/h 85% 0.07in /  1.78mm 0.0 W/m2
21:36 53.8 °F /  12.1 °C 49.6 °F /  9.8 °C 30.05in /  1017.5hPa SE 10.1mph /  16.3km/h 10.1mph /  16.3km/h 86% 0.09in /  2.29mm 0.0 W/m2
21:42 53.2 °F /  11.8 °C 49.1 °F /  9.5 °C 30.04in /  1017.2hPa SE 6.0mph /  9.7km/h 11.0mph /  17.7km/h 86% 0.11in /  2.79mm 0.0 W/m2
21:48 52.9 °F /  11.6 °C 48.7 °F /  9.3 °C 30.03in /  1016.8hPa ESE 8.1mph /  13km/h 14.0mph /  22.5km/h 86% 0.13in /  3.3mm 0.0 W/m2
21:54 52.9 °F /  11.6 °C 49.1 °F /  9.5 °C 30.02in /  1016.5hPa ESE 6.0mph /  9.7km/h 11.0mph /  17.7km/h 87% 0.13in /  3.3mm 0.0 W/m2
22:00 52.5 °F /  11.4 °C 48.4 °F /  9.1 °C 30.03in /  1016.8hPa NNE 6.0mph /  9.7km/h 16.0mph /  25.7km/h 86% 0.14in /  3.56mm 0.0 W/m2
22:06 52.5 °F /  11.4 °C 48.4 °F /  9.1 °C 30.01in /  1016.1hPa SE 8.9mph /  14.3km/h 13.0mph /  20.9km/h 86% 0.13in /  3.3mm 0.0 W/m2
22:13 52.5 °F /  11.4 °C 47.8 °F /  8.8 °C 29.98in /  1015.1hPa ESE 8.9mph /  14.3km/h 20.0mph /  32.2km/h 84% 0.11in /  2.79mm 0.0 W/m2
22:19 52.9 °F /  11.6 °C 47.5 °F /  8.6 °C 29.99in /  1015.5hPa ESE 4.0mph /  6.4km/h 14.0mph /  22.5km/h 82% 0.11in /  2.79mm 0.0 W/m2
22:25 52.9 °F /  11.6 °C 47.8 °F /  8.8 °C 30.00in /  1015.8hPa ENE 2.0mph /  3.2km/h 6.0mph /  9.7km/h 83% 0.09in /  2.29mm 0.0 W/m2
22:31 52.7 °F /  11.5 °C 48.0 °F /  8.9 °C 30.01in /  1016.1hPa East 0.9mph /  1.4km/h 4.0mph /  6.4km/h 84% 0.06in /  1.52mm 0.0 W/m2
22:37 52.5 °F /  11.4 °C 48.2 °F /  9 °C 30.01in /  1016.1hPa Calm   2.0mph /  3.2km/h 85% 0.05in /  1.27mm 0.0 W/m2
22:43 52.5 °F /  11.4 °C 47.1 °F /  8.4 °C 30.01in /  1016.1hPa Calm   4.0mph /  6.4km/h 82% 0.02in /  0.51mm 0.0 W/m2
22:49 52.5 °F /  11.4 °C 48.2 °F /  9 °C 30.00in /  1015.8hPa Calm   2.0mph /  3.2km/h 85% 0.02in /  0.51mm 0.0 W/m2
22:55 52.3 °F /  11.3 °C 47.7 °F /  8.7 °C 30.01in /  1016.1hPa Calm   2.0mph /  3.2km/h 84% 0.00in /  0mm 0.0 W/m2
23:02 52.2 °F /  11.2 °C 47.5 °F /  8.6 °C 30.01in /  1016.1hPa North 2.9mph /  4.7km/h 3.0mph /  4.8km/h 84% 0.00in /  0mm 0.0 W/m2
23:08 52.2 °F /  11.2 °C 47.5 °F /  8.6 °C 30.00in /  1015.8hPa Calm   1.0mph /  1.6km/h 84% 0.00in /  0mm 0.0 W/m2
23:14 51.8 °F /  11 °C 47.1 °F /  8.4 °C 30.00in /  1015.8hPa East 2.9mph /  4.7km/h 10.0mph /  16.1km/h 84% 0.00in /  0mm 0.0 W/m2
23:20 52.2 °F /  11.2 °C 46.2 °F /  7.9 °C 29.99in /  1015.5hPa East 2.9mph /  4.7km/h 8.0mph /  12.9km/h 80% 0.00in /  0mm 0.0 W/m2
23:26 52.5 °F /  11.4 °C 45.9 °F /  7.7 °C 30.00in /  1015.8hPa SE 4.0mph /  6.4km/h 11.0mph /  17.7km/h 78% 0.00in /  0mm 0.0 W/m2
23:32 52.9 °F /  11.6 °C 46.6 °F /  8.1 °C 29.99in /  1015.5hPa Calm   4.0mph /  6.4km/h 79% 0.00in /  0mm 0.0 W/m2
23:38 52.7 °F /  11.5 °C 46.4 °F /  8 °C 29.98in /  1015.1hPa SE 2.0mph /  3.2km/h 7.0mph /  11.3km/h 79% 0.00in /  0mm 0.0 W/m2
23:44 52.9 °F /  11.6 °C 45.5 °F /  7.5 °C 29.98in /  1015.1hPa SE 4.0mph /  6.4km/h 7.0mph /  11.3km/h 76% 0.00in /  0mm 0.0 W/m2
23:50 53.4 °F /  11.9 °C 45.3 °F /  7.4 °C 29.98in /  1015.1hPa SE 6.0mph /  9.7km/h 11.0mph /  17.7km/h 74% 0.00in /  0mm 0.0 W/m2
23:56 54.1 °F /  12.3 °C 45.7 °F /  7.6 °C 29.98in /  1015.1hPa SSE 6.0mph /  9.7km/h 10.0mph /  16.1km/h 73% 0.00in /  0mm 0.0 W/m2
Olympia, Windhoek, Namibia
Compliments of Weather Underground - 3 mb